Time;durP1;ratioP1;P1;durP2;ratioP2;P2;SDS_P1;SDS_P2;PMS_P1;PMS_P2;Temp;Humidity;BMP_temperature;BMP_pressure;BME280_temperature;BME280_humidity;BME280_pressure;Samples;Min_cycle;Max_cycle;Signal;HPM_P1;HPM_P2
2022/05/09 00:01:19;;;;;;;8.17;4.13;;;;;;;;;;5032712;28;20255;-71
2022/05/09 00:03:47;;;;;;;11.37;4.80;;;;;;;;;;5032551;28;20207;-71
2022/05/09 00:06:17;;;;;;;11.33;4.57;;;;;;;;;;5034185;28;20242;-71
2022/05/09 00:08:46;;;;;;;8.50;4.73;;;;;;;;;;5034180;28;20250;-71
2022/05/09 00:11:14;;;;;;;8.07;4.63;;;;;;;;;;5033744;28;20266;-72
2022/05/09 00:13:43;;;;;;;10.53;5.17;;;;;;;;;;5033865;28;20667;-72
2022/05/09 00:16:11;;;;;;;11.00;4.20;;;;;;;;;;5032002;28;20646;-71
2022/05/09 00:18:40;;;;;;;8.83;4.53;;;;;;;;;;5033825;28;20223;-71
2022/05/09 00:21:08;;;;;;;14.80;4.73;;;;;;;;;;5034150;28;20277;-72
2022/05/09 00:23:38;;;;;;;9.30;4.33;;;;;;;;;;5033532;28;20204;-71
2022/05/09 00:26:07;;;;;;;8.77;4.40;;;;;;;;;;5032829;28;20204;-72
2022/05/09 00:28:36;;;;;;;9.10;4.57;;;;;;;;;;5014750;28;20224;-73
2022/05/09 00:31:04;;;;;;;11.87;4.97;;;;;;;;;;5031680;28;20281;-71
2022/05/09 00:33:33;;;;;;;7.43;4.60;;;;;;;;;;5033448;28;20234;-71
2022/05/09 00:36:01;;;;;;;9.83;4.63;;;;;;;;;;5033472;28;20265;-73
2022/05/09 00:38:29;;;;;;;12.00;4.60;;;;;;;;;;5033579;28;20216;-71
2022/05/09 00:43:45;;;;;;;12.13;4.60;;;;;;;;;;5031035;28;20207;-72
2022/05/09 00:46:14;;;;;;;10.33;4.53;;;;;;;;;;5024981;28;20228;-71
2022/05/09 00:48:42;;;;;;;10.57;4.70;;;;;;;;;;5033453;28;20258;-72
2022/05/09 00:51:12;;;;;;;10.90;4.37;;;;;;;;;;5032129;28;20242;-71
2022/05/09 00:53:41;;;;;;;12.50;4.40;;;;;;;;;;5033364;28;20748;-71
2022/05/09 00:56:15;;;;;;;7.37;4.23;;;;;;;;;;5017177;28;20215;-73
2022/05/09 00:58:46;;;;;;;7.40;4.20;;;;;;;;;;5031308;28;20270;-72
2022/05/09 01:01:15;;;;;;;10.33;4.37;;;;;;;;;;5031370;28;20643;-72
2022/05/09 01:03:45;;;;;;;10.77;4.70;;;;;;;;;;5032800;28;20576;-72
2022/05/09 01:06:14;;;;;;;9.57;4.90;;;;;;;;;;5018745;28;20241;-72
2022/05/09 01:08:42;;;;;;;10.10;4.70;;;;;;;;;;5033171;28;20227;-72
2022/05/09 01:11:14;;;;;;;7.93;4.23;;;;;;;;;;5031086;28;20200;-71
2022/05/09 01:13:44;;;;;;;10.40;5.03;;;;;;;;;;5031750;28;20207;-72
2022/05/09 01:16:14;;;;;;;8.43;4.50;;;;;;;;;;5032499;28;20258;-72
2022/05/09 01:18:43;;;;;;;8.40;4.70;;;;;;;;;;5032971;28;20227;-71
2022/05/09 01:21:27;;;;;;;9.97;4.70;;;;;;;;;;5032728;28;20659;-71
2022/05/09 01:23:57;;;;;;;8.80;4.87;;;;;;;;;;5033346;28;20208;-72
2022/05/09 01:26:25;;;;;;;10.07;4.77;;;;;;;;;;5024650;28;20192;-72
2022/05/09 01:28:55;;;;;;;8.63;4.40;;;;;;;;;;5033098;28;20219;-72
2022/05/09 01:31:23;;;;;;;8.73;4.47;;;;;;;;;;5029499;28;20238;-71
2022/05/09 01:33:52;;;;;;;8.93;4.93;;;;;;;;;;5031984;28;20299;-72
2022/05/09 01:36:23;;;;;;;9.50;5.10;;;;;;;;;;5016744;28;20223;-71
2022/05/09 01:38:56;;;;;;;8.63;4.77;;;;;;;;;;5033327;28;20278;-71
2022/05/09 01:41:27;;;;;;;9.10;4.67;;;;;;;;;;5032215;28;20203;-71
2022/05/09 01:43:56;;;;;;;7.73;4.73;;;;;;;;;;5030000;28;20246;-71
2022/05/09 01:46:25;;;;;;;8.47;4.30;;;;;;;;;;5030789;28;20191;-71
2022/05/09 01:51:41;;;;;;;8.57;4.50;;;;;;;;;;5031924;28;20208;-71
2022/05/09 01:54:10;;;;;;;7.67;3.90;;;;;;;;;;5032327;28;20203;-72
2022/05/09 01:56:41;;;;;;;5.97;3.93;;;;;;;;;;5030227;28;20219;-71
2022/05/09 01:59:10;;;;;;;6.30;4.03;;;;;;;;;;5032295;28;20252;-71
2022/05/09 02:01:40;;;;;;;8.53;4.40;;;;;;;;;;5031993;28;20208;-71
2022/05/09 02:04:11;;;;;;;10.40;4.80;;;;;;;;;;5032090;28;20272;-71
2022/05/09 02:06:39;;;;;;;6.97;4.23;;;;;;;;;;5031180;28;20199;-72
2022/05/09 02:09:08;;;;;;;7.97;4.00;;;;;;;;;;5031042;28;20334;-72
2022/05/09 02:11:36;;;;;;;5.87;4.07;;;;;;;;;;5031945;28;20215;-72
2022/05/09 02:14:06;;;;;;;8.30;4.50;;;;;;;;;;5031627;28;20207;-71
2022/05/09 02:16:35;;;;;;;9.67;4.80;;;;;;;;;;5031438;28;20254;-72
2022/05/09 02:19:04;;;;;;;8.03;4.60;;;;;;;;;;5023071;28;20226;-71
2022/05/09 02:21:33;;;;;;;13.10;4.83;;;;;;;;;;5031324;28;20221;-71
2022/05/09 02:24:02;;;;;;;7.00;4.30;;;;;;;;;;5031868;28;20615;-71
2022/05/09 02:26:31;;;;;;;6.33;4.07;;;;;;;;;;5031780;28;20204;-72
2022/05/09 02:29:00;;;;;;;6.63;4.20;;;;;;;;;;5031822;28;20626;-72
2022/05/09 02:31:31;;;;;;;8.33;3.67;;;;;;;;;;5033930;28;20652;-71
2022/05/09 02:34:01;;;;;;;6.33;3.97;;;;;;;;;;5035343;28;20253;-71
2022/05/09 02:36:29;;;;;;;7.07;4.33;;;;;;;;;;5029640;28;20216;-71
2022/05/09 02:38:58;;;;;;;6.70;4.17;;;;;;;;;;5034894;28;20239;-71
2022/05/09 02:41:26;;;;;;;6.13;3.93;;;;;;;;;;5035430;28;20207;-71
2022/05/09 02:43:54;;;;;;;6.83;4.20;;;;;;;;;;5035121;28;20204;-71
2022/05/09 02:46:23;;;;;;;6.40;3.77;;;;;;;;;;5036184;28;20195;-71
2022/05/09 02:48:53;;;;;;;7.23;4.67;;;;;;;;;;5035111;28;20224;-71
2022/05/09 02:51:22;;;;;;;6.60;4.17;;;;;;;;;;5034479;28;20279;-71
2022/05/09 02:53:50;;;;;;;5.37;4.20;;;;;;;;;;5034952;28;20207;-71
2022/05/09 02:56:18;;;;;;;7.90;4.40;;;;;;;;;;5032638;28;20200;-71
2022/05/09 02:58:47;;;;;;;8.80;4.40;;;;;;;;;;5034770;28;20733;-71
2022/05/09 03:01:15;;;;;;;6.17;4.20;;;;;;;;;;5034306;28;20202;-72
2022/05/09 03:06:32;;;;;;;8.73;4.93;;;;;;;;;;5023256;28;20667;-71
2022/05/09 03:09:00;;;;;;;9.83;4.60;;;;;;;;;;5035393;28;20300;-71
2022/05/09 03:11:29;;;;;;;5.67;3.93;;;;;;;;;;5034275;28;20203;-71
2022/05/09 03:13:57;;;;;;;7.83;4.40;;;;;;;;;;5035103;28;20662;-72
2022/05/09 03:16:26;;;;;;;7.33;4.63;;;;;;;;;;5032677;28;20613;-71
2022/05/09 03:18:55;;;;;;;6.87;4.60;;;;;;;;;;5033708;28;20692;-71
2022/05/09 03:21:23;;;;;;;6.60;4.60;;;;;;;;;;5034370;28;20211;-71
2022/05/09 03:23:53;;;;;;;7.93;4.70;;;;;;;;;;5035005;28;20602;-72
2022/05/09 03:26:21;;;;;;;10.57;4.50;;;;;;;;;;5033998;28;20268;-72
2022/05/09 03:28:50;;;;;;;6.83;4.30;;;;;;;;;;5035143;28;20219;-72
2022/05/09 03:31:19;;;;;;;5.40;3.87;;;;;;;;;;5031802;28;20627;-71
2022/05/09 03:33:48;;;;;;;9.87;4.47;;;;;;;;;;5032671;28;20206;-71
2022/05/09 03:36:16;;;;;;;7.27;4.23;;;;;;;;;;5034353;28;20207;-71
2022/05/09 03:38:45;;;;;;;7.70;4.60;;;;;;;;;;5034314;28;20282;-71
2022/05/09 03:41:15;;;;;;;11.20;4.53;;;;;;;;;;5032806;28;20202;-71
2022/05/09 03:43:43;;;;;;;6.03;4.40;;;;;;;;;;5034232;28;20265;-71
2022/05/09 03:46:12;;;;;;;7.90;4.40;;;;;;;;;;5034265;28;20209;-71
2022/05/09 03:48:40;;;;;;;9.90;4.53;;;;;;;;;;5034622;28;20222;-71
2022/05/09 03:51:09;;;;;;;8.57;4.73;;;;;;;;;;5034224;28;20264;-71
2022/05/09 03:53:37;;;;;;;6.87;4.17;;;;;;;;;;5027970;28;20198;-71
2022/05/09 03:56:07;;;;;;;6.53;4.20;;;;;;;;;;5034027;28;20251;-71
2022/05/09 03:58:40;;;;;;;7.77;4.70;;;;;;;;;;5033313;28;20593;-71
2022/05/09 04:01:11;;;;;;;8.60;4.10;;;;;;;;;;5033257;28;20204;-71
2022/05/09 04:03:46;;;;;;;6.10;4.40;;;;;;;;;;5032623;28;20293;-70
2022/05/09 04:06:32;;;;;;;8.80;4.63;;;;;;;;;;5034991;28;20238;-71
2022/05/09 04:09:01;;;;;;;9.00;4.20;;;;;;;;;;5033890;28;20273;-71
2022/05/09 04:11:29;;;;;;;7.83;4.40;;;;;;;;;;5033326;28;20607;-70
2022/05/09 04:13:59;;;;;;;6.97;4.20;;;;;;;;;;5033769;28;20214;-70
2022/05/09 04:19:13;;;;;;;8.50;4.53;;;;;;;;;;5034076;28;20232;-71
2022/05/09 04:21:42;;;;;;;7.33;4.30;;;;;;;;;;5034132;28;20215;-71
2022/05/09 04:24:10;;;;;;;7.30;4.60;;;;;;;;;;5014273;28;20661;-70
2022/05/09 04:26:39;;;;;;;6.50;4.30;;;;;;;;;;5029635;28;20206;-70
2022/05/09 04:29:09;;;;;;;8.40;4.90;;;;;;;;;;5033887;28;20203;-71
2022/05/09 04:31:37;;;;;;;7.47;5.07;;;;;;;;;;5033555;28;20230;-70
2022/05/09 04:34:05;;;;;;;9.43;4.53;;;;;;;;;;5032181;28;20201;-71
2022/05/09 04:36:38;;;;;;;9.10;4.97;;;;;;;;;;5033951;28;20254;-70
2022/05/09 04:39:06;;;;;;;8.83;4.43;;;;;;;;;;5027885;28;20559;-71
2022/05/09 04:41:36;;;;;;;8.00;5.23;;;;;;;;;;5033368;28;20214;-71
2022/05/09 04:44:05;;;;;;;7.57;5.10;;;;;;;;;;5033015;28;20208;-71
2022/05/09 04:46:35;;;;;;;8.27;5.13;;;;;;;;;;5033650;28;20202;-71
2022/05/09 04:49:04;;;;;;;12.00;5.40;;;;;;;;;;5033801;28;20818;-70
2022/05/09 04:51:32;;;;;;;8.97;5.73;;;;;;;;;;5033678;28;20638;-70
2022/05/09 04:54:00;;;;;;;7.83;5.07;;;;;;;;;;5032661;28;20203;-71
2022/05/09 04:56:29;;;;;;;8.30;5.43;;;;;;;;;;5033370;28;20257;-71
2022/05/09 04:58:57;;;;;;;8.80;5.37;;;;;;;;;;5033228;28;20230;-71
2022/05/09 05:01:26;;;;;;;10.37;5.50;;;;;;;;;;5032687;28;20261;-71
2022/05/09 05:03:55;;;;;;;9.77;5.20;;;;;;;;;;5032917;28;20210;-71
2022/05/09 05:06:24;;;;;;;9.97;5.50;;;;;;;;;;5028522;28;20671;-71
2022/05/09 05:08:52;;;;;;;9.33;5.83;;;;;;;;;;5028091;28;20228;-71
2022/05/09 05:11:20;;;;;;;10.63;5.70;;;;;;;;;;5031356;28;20214;-72
2022/05/09 05:13:49;;;;;;;12.07;6.07;;;;;;;;;;5027599;28;20203;-71
2022/05/09 05:16:17;;;;;;;9.63;5.73;;;;;;;;;;5030746;28;20678;-71
2022/05/09 05:18:46;;;;;;;9.27;5.57;;;;;;;;;;5030627;28;20227;-71
2022/05/09 05:21:17;;;;;;;9.00;5.40;;;;;;;;;;5032331;28;20208;-71
2022/05/09 05:23:47;;;;;;;10.40;5.60;;;;;;;;;;5029144;28;20205;-71
2022/05/09 05:26:15;;;;;;;10.63;5.60;;;;;;;;;;5033604;28;20671;-71
2022/05/09 05:28:43;;;;;;;8.07;5.47;;;;;;;;;;5030470;28;20216;-71
2022/05/09 05:31:13;;;;;;;8.20;5.40;;;;;;;;;;5033053;28;20223;-71
2022/05/09 05:33:42;;;;;;;10.50;5.60;;;;;;;;;;5023172;28;20214;-70
2022/05/09 05:36:11;;;;;;;10.07;5.73;;;;;;;;;;5026529;28;20211;-72
2022/05/09 05:38:41;;;;;;;8.83;5.97;;;;;;;;;;5030312;28;20280;-71
2022/05/09 05:41:09;;;;;;;8.03;5.47;;;;;;;;;;5032286;28;20203;-71
2022/05/09 05:43:38;;;;;;;8.57;5.47;;;;;;;;;;5031323;28;20568;-72
2022/05/09 05:46:06;;;;;;;7.37;5.60;;;;;;;;;;5031317;28;20651;-72
2022/05/09 05:48:35;;;;;;;12.17;5.97;;;;;;;;;;5032428;28;20549;-71
2022/05/09 05:51:03;;;;;;;11.20;5.83;;;;;;;;;;5030707;28;20207;-71
2022/05/09 05:53:32;;;;;;;9.63;5.70;;;;;;;;;;5032706;28;20208;-71
2022/05/09 05:56:02;;;;;;;9.60;5.10;;;;;;;;;;5032512;28;20207;-71
2022/05/09 05:58:30;;;;;;;8.67;5.50;;;;;;;;;;5032393;28;20215;-71
2022/05/09 06:00:59;;;;;;;8.83;5.60;;;;;;;;;;5025591;28;20200;-70
2022/05/09 06:03:27;;;;;;;9.10;5.23;;;;;;;;;;5017417;28;20204;-71
2022/05/09 06:05:55;;;;;;;9.10;4.93;;;;;;;;;;5035251;28;20253;-71
2022/05/09 06:08:24;;;;;;;8.37;5.20;;;;;;;;;;5036188;28;20211;-71
2022/05/09 06:10:52;;;;;;;6.67;4.83;;;;;;;;;;5034402;28;20628;-72
2022/05/09 06:13:22;;;;;;;6.73;4.90;;;;;;;;;;5031344;28;20255;-71
2022/05/09 06:15:50;;;;;;;8.70;5.07;;;;;;;;;;5036096;28;20698;-71
2022/05/09 06:18:19;;;;;;;8.67;4.87;;;;;;;;;;5036139;28;20232;-71
2022/05/09 06:20:47;;;;;;;10.43;5.17;;;;;;;;;;5036354;28;20200;-71
2022/05/09 06:23:17;;;;;;;9.60;5.33;;;;;;;;;;5036355;28;20311;-72
2022/05/09 06:25:48;;;;;;;10.23;4.93;;;;;;;;;;5036669;28;20218;-72
2022/05/09 06:28:19;;;;;;;11.63;5.40;;;;;;;;;;5034988;28;20224;-71
2022/05/09 06:30:48;;;;;;;7.40;5.03;;;;;;;;;;5036020;28;20223;-71
2022/05/09 06:33:22;;;;;;;7.37;5.03;;;;;;;;;;5035604;28;20199;-71
2022/05/09 06:35:51;;;;;;;8.70;4.50;;;;;;;;;;5036158;28;20204;-71
2022/05/09 06:38:20;;;;;;;7.20;4.73;;;;;;;;;;5035621;28;20220;-71
2022/05/09 06:40:49;;;;;;;8.77;4.60;;;;;;;;;;5034489;28;20208;-71
2022/05/09 06:43:17;;;;;;;8.60;4.87;;;;;;;;;;5036060;28;20200;-71
2022/05/09 06:45:46;;;;;;;9.20;4.73;;;;;;;;;;5036035;28;20211;-72
2022/05/09 06:48:16;;;;;;;6.43;4.37;;;;;;;;;;5035651;28;20228;-71
2022/05/09 06:50:45;;;;;;;7.87;3.80;;;;;;;;;;5035328;28;20306;-72
2022/05/09 06:53:14;;;;;;;9.60;4.30;;;;;;;;;;5035540;28;20208;-71
2022/05/09 06:55:46;;;;;;;8.23;4.03;;;;;;;;;;5018673;28;20204;-72
2022/05/09 06:58:16;;;;;;;9.13;4.80;;;;;;;;;;5015244;28;20279;-71
2022/05/09 07:00:45;;;;;;;9.20;4.40;;;;;;;;;;5021497;28;20211;-72
2022/05/09 07:03:16;;;;;;;8.07;4.57;;;;;;;;;;5035365;28;20230;-72
2022/05/09 07:05:46;;;;;;;6.50;4.03;;;;;;;;;;5035194;28;20737;-71
2022/05/09 07:08:15;;;;;;;7.97;4.27;;;;;;;;;;5035055;28;20228;-71
2022/05/09 07:10:43;;;;;;;9.20;4.10;;;;;;;;;;5035636;28;20203;-71
2022/05/09 07:13:29;;;;;;;6.77;3.83;;;;;;;;;;5035166;28;20724;-71
2022/05/09 07:15:59;;;;;;;5.23;3.73;;;;;;;;;;5035101;28;20607;-70
2022/05/09 07:18:29;;;;;;;9.67;3.87;;;;;;;;;;5034846;28;20228;-71
2022/05/09 07:20:58;;;;;;;8.17;3.97;;;;;;;;;;5035038;28;20290;-71
2022/05/09 07:23:27;;;;;;;9.47;3.80;;;;;;;;;;5035069;28;20215;-71
2022/05/09 07:25:56;;;;;;;6.97;3.77;;;;;;;;;;5035731;28;20203;-71
2022/05/09 07:28:28;;;;;;;8.60;3.60;;;;;;;;;;5029165;28;20230;-71
2022/05/09 07:30:57;;;;;;;6.67;3.33;;;;;;;;;;5034189;28;20277;-71
2022/05/09 07:33:25;;;;;;;7.83;3.87;;;;;;;;;;5034728;28;20208;-72
2022/05/09 07:35:55;;;;;;;5.80;2.97;;;;;;;;;;5033742;28;20203;-72
2022/05/09 07:38:24;;;;;;;4.53;3.10;;;;;;;;;;5033217;28;20227;-72
2022/05/09 07:40:53;;;;;;;6.50;2.90;;;;;;;;;;5034744;28;20234;-71
2022/05/09 07:43:23;;;;;;;5.63;3.15;;;;;;;;;;5034669;28;20211;-71
2022/05/09 07:45:54;;;;;;;5.18;3.25;;;;;;;;;;5034948;28;20609;-71
2022/05/09 07:48:23;;;;;;;5.80;3.07;;;;;;;;;;5034924;28;20228;-71
2022/05/09 07:50:51;;;;;;;8.23;3.60;;;;;;;;;;5029820;28;20211;-72
2022/05/09 07:53:23;;;;;;;6.75;3.15;;;;;;;;;;5034425;28;20262;-71
2022/05/09 07:55:51;;;;;;;5.43;3.15;;;;;;;;;;5034690;28;20547;-71
2022/05/09 07:58:21;;;;;;;4.80;2.60;;;;;;;;;;5034469;28;20228;-72
2022/05/09 08:00:49;;;;;;;7.47;2.78;;;;;;;;;;5027009;28;20232;-71
2022/05/09 08:03:19;;;;;;;5.22;2.80;;;;;;;;;;5018256;28;20254;-72
2022/05/09 08:05:48;;;;;;;5.15;2.60;;;;;;;;;;5034402;28;20258;-72
2022/05/09 08:08:16;;;;;;;5.15;2.70;;;;;;;;;;5033989;28;20227;-72
2022/05/09 08:10:47;;;;;;;6.28;2.47;;;;;;;;;;5034480;28;20196;-71
2022/05/09 08:13:16;;;;;;;7.22;2.63;;;;;;;;;;5034234;28;20628;-71
2022/05/09 08:15:45;;;;;;;5.40;2.50;;;;;;;;;;5034238;28;20207;-72
2022/05/09 08:18:14;;;;;;;6.95;2.70;;;;;;;;;;5032993;28;20683;-71
2022/05/09 08:20:45;;;;;;;6.20;2.50;;;;;;;;;;5033888;28;20793;-71
2022/05/09 08:23:16;;;;;;;6.13;2.80;;;;;;;;;;5034224;28;20298;-72
2022/05/09 08:25:47;;;;;;;4.35;2.60;;;;;;;;;;5034118;28;20282;-72
2022/05/09 08:28:16;;;;;;;4.22;2.13;;;;;;;;;;5033518;28;20226;-71
2022/05/09 08:30:47;;;;;;;5.15;2.60;;;;;;;;;;5033090;28;20258;-72
2022/05/09 08:33:17;;;;;;;6.82;2.47;;;;;;;;;;5033672;28;20290;-72
2022/05/09 08:35:46;;;;;;;6.10;2.50;;;;;;;;;;5033767;28;20722;-72
2022/05/09 08:38:14;;;;;;;6.03;2.55;;;;;;;;;;5033898;28;20224;-71
2022/05/09 08:40:47;;;;;;;6.53;2.80;;;;;;;;;;5033843;28;20224;-72
2022/05/09 08:43:20;;;;;;;5.70;2.95;;;;;;;;;;5033460;28;20240;-72
2022/05/09 08:45:50;;;;;;;5.20;2.63;;;;;;;;;;5032998;28;20204;-71
2022/05/09 08:48:25;;;;;;;5.25;2.83;;;;;;;;;;5033675;28;20246;-71
2022/05/09 08:50:58;;;;;;;4.43;2.75;;;;;;;;;;5033526;28;20221;-71
2022/05/09 08:53:28;;;;;;;7.10;2.80;;;;;;;;;;5033636;28;20653;-71
2022/05/09 08:55:59;;;;;;;6.68;2.70;;;;;;;;;;5033405;28;20226;-72
2022/05/09 08:58:37;;;;;;;7.03;2.42;;;;;;;;;;5033644;28;20315;-72
2022/05/09 09:01:10;;;;;;;4.65;2.42;;;;;;;;;;5032930;28;20609;-72
2022/05/09 09:03:43;;;;;;;6.60;2.40;;;;;;;;;;5033369;28;20235;-72
2022/05/09 09:06:15;;;;;;;3.75;2.40;;;;;;;;;;5033270;28;20207;-71
2022/05/09 09:08:53;;;;;;;5.90;2.60;;;;;;;;;;5033129;28;20281;-72
2022/05/09 09:11:38;;;;;;;8.15;2.58;;;;;;;;;;5033200;28;20320;-72
2022/05/09 09:14:11;;;;;;;3.92;2.10;;;;;;;;;;5032554;28;20254;-71
2022/05/09 09:16:45;;;;;;;6.55;2.63;;;;;;;;;;5032774;28;20203;-72
2022/05/09 09:19:27;;;;;;;5.82;2.70;;;;;;;;;;5033639;28;20274;-71
2022/05/09 09:22:01;;;;;;;4.63;2.67;;;;;;;;;;5033396;28;20694;-72
2022/05/09 09:24:38;;;;;;;6.03;2.42;;;;;;;;;;5032697;28;20258;-71
2022/05/09 09:27:13;;;;;;;4.38;2.63;;;;;;;;;;5032819;28;20273;-71
2022/05/09 09:29:43;;;;;;;4.10;2.38;;;;;;;;;;5032327;28;20282;-71
2022/05/09 09:32:12;;;;;;;6.20;2.28;;;;;;;;;;5033089;28;20281;-72
2022/05/09 09:34:43;;;;;;;4.43;2.10;;;;;;;;;;5032787;28;20539;-72
2022/05/09 09:37:18;;;;;;;5.55;2.42;;;;;;;;;;5032973;28;20223;-71
2022/05/09 09:39:47;;;;;;;5.78;2.50;;;;;;;;;;5033663;28;20199;-71
2022/05/09 09:42:15;;;;;;;5.38;2.63;;;;;;;;;;5036139;28;20625;-72
2022/05/09 09:44:47;;;;;;;6.20;2.28;;;;;;;;;;5024288;28;20195;-71
2022/05/09 09:47:23;;;;;;;6.00;2.28;;;;;;;;;;5036382;28;20243;-70
2022/05/09 09:50:14;;;;;;;3.45;2.20;;;;;;;;;;5036942;28;20270;-71
2022/05/09 09:52:45;;;;;;;5.18;2.53;;;;;;;;;;5037339;28;20203;-72
2022/05/09 09:55:21;;;;;;;7.63;2.72;;;;;;;;;;5036892;28;20280;-71
2022/05/09 09:57:53;;;;;;;4.85;2.30;;;;;;;;;;5035763;28;20279;-71
2022/05/09 10:00:25;;;;;;;5.53;2.40;;;;;;;;;;5036638;28;20223;-72
2022/05/09 10:02:54;;;;;;;4.60;2.10;;;;;;;;;;5036358;28;20208;-72
2022/05/09 10:05:33;;;;;;;4.97;2.38;;;;;;;;;;5036608;28;20211;-71
2022/05/09 10:08:17;;;;;;;4.55;2.45;;;;;;;;;;5036486;28;20302;-71
2022/05/09 10:10:55;;;;;;;6.90;2.47;;;;;;;;;;5036544;28;20261;-72
2022/05/09 10:13:24;;;;;;;4.68;2.53;;;;;;;;;;5035632;28;20212;-72
2022/05/09 10:16:04;;;;;;;3.78;2.35;;;;;;;;;;5036686;28;20204;-72
2022/05/09 10:18:33;;;;;;;4.53;2.28;;;;;;;;;;5036479;28;20219;-72
2022/05/09 10:26:55;;;;;;;4.18;2.28;;;;;;;;;;5034903;28;20616;-72
2022/05/09 10:29:24;;;;;;;3.75;2.33;;;;;;;;;;5035503;28;20611;-72
2022/05/09 10:31:56;;;;;;;5.32;2.47;;;;;;;;;;5035917;28;20270;-72
2022/05/09 10:34:27;;;;;;;6.15;2.67;;;;;;;;;;5036175;28;20238;-71
2022/05/09 10:36:57;;;;;;;3.80;2.00;;;;;;;;;;5036291;28;20196;-72
2022/05/09 10:39:27;;;;;;;6.35;2.60;;;;;;;;;;5036094;28;20257;-71
2022/05/09 10:41:59;;;;;;;4.78;2.33;;;;;;;;;;5035244;28;20220;-71
2022/05/09 10:44:32;;;;;;;4.88;2.50;;;;;;;;;;5035579;28;20204;-72
2022/05/09 10:47:04;;;;;;;5.20;2.90;;;;;;;;;;5036031;28;20290;-72
2022/05/09 10:49:36;;;;;;;5.38;2.40;;;;;;;;;;5035722;28;20729;-71
2022/05/09 10:52:08;;;;;;;7.25;2.40;;;;;;;;;;5035376;28;20204;-71
2022/05/09 10:54:43;;;;;;;5.60;2.42;;;;;;;;;;5035197;28;20199;-71
2022/05/09 10:57:15;;;;;;;5.20;2.30;;;;;;;;;;5034318;28;20246;-72
2022/05/09 11:00:09;;;;;;;3.83;2.22;;;;;;;;;;5035783;28;20231;-71
2022/05/09 11:02:40;;;;;;;3.20;2.45;;;;;;;;;;5035733;28;20227;-72
2022/05/09 11:05:09;;;;;;;4.00;2.67;;;;;;;;;;5035348;28;20235;-72
2022/05/09 11:07:42;;;;;;;6.05;2.30;;;;;;;;;;5035683;28;20282;-72
2022/05/09 11:10:17;;;;;;;4.47;2.30;;;;;;;;;;5035576;28;20204;-71
2022/05/09 11:12:49;;;;;;;4.45;2.30;;;;;;;;;;5035620;28;20257;-72
2022/05/09 11:15:23;;;;;;;5.53;2.53;;;;;;;;;;5035253;28;20214;-72
2022/05/09 11:17:56;;;;;;;5.38;2.50;;;;;;;;;;5035102;28;20566;-72
2022/05/09 11:20:30;;;;;;;7.25;2.60;;;;;;;;;;5035169;28;20617;-71
2022/05/09 11:23:03;;;;;;;3.67;2.03;;;;;;;;;;5035406;28;20683;-72
2022/05/09 11:25:42;;;;;;;5.07;2.45;;;;;;;;;;5034447;28;20207;-71
2022/05/09 11:28:15;;;;;;;5.20;2.60;;;;;;;;;;5035037;28;20219;-71
2022/05/09 11:30:46;;;;;;;6.38;2.47;;;;;;;;;;5034866;28;20696;-72
2022/05/09 11:33:30;;;;;;;4.95;2.10;;;;;;;;;;5035149;28;20203;-72
2022/05/09 11:36:02;;;;;;;7.50;2.40;;;;;;;;;;5035021;28;20218;-71
2022/05/09 11:38:36;;;;;;;3.25;1.92;;;;;;;;;;5034192;28;20616;-72
2022/05/09 11:41:14;;;;;;;5.75;2.20;;;;;;;;;;5034994;28;20216;-71
2022/05/09 11:43:50;;;;;;;3.90;2.20;;;;;;;;;;5034889;28;20211;-72
2022/05/09 11:46:25;;;;;;;5.40;2.45;;;;;;;;;;5034923;28;20261;-72
2022/05/09 11:49:08;;;;;;;4.35;2.33;;;;;;;;;;5034497;28;20247;-72
2022/05/09 11:51:44;;;;;;;5.50;2.42;;;;;;;;;;5034995;28;20196;-71
2022/05/09 11:54:14;;;;;;;6.90;2.38;;;;;;;;;;5033837;28;20200;-71
2022/05/09 11:56:45;;;;;;;4.97;2.40;;;;;;;;;;5034559;28;20608;-71
2022/05/09 11:59:16;;;;;;;5.93;2.40;;;;;;;;;;5034367;28;20715;-72
2022/05/09 12:01:55;;;;;;;4.32;2.15;;;;;;;;;;5034203;28;20698;-71
2022/05/09 12:04:33;;;;;;;4.68;2.40;;;;;;;;;;5033905;28;20207;-70
2022/05/09 12:07:02;;;;;;;4.72;2.20;;;;;;;;;;5027193;28;20219;-71
2022/05/09 12:09:48;;;;;;;5.25;2.10;;;;;;;;;;5033570;28;20266;-72
2022/05/09 12:12:31;;;;;;;4.03;2.30;;;;;;;;;;5031002;28;20196;-71
2022/05/09 12:15:04;;;;;;;3.72;2.13;;;;;;;;;;5031203;28;20683;-72
2022/05/09 12:17:35;;;;;;;3.25;2.25;;;;;;;;;;5030582;28;20226;-71
2022/05/09 12:20:07;;;;;;;3.17;2.28;;;;;;;;;;5030258;28;20288;-71
2022/05/09 12:22:40;;;;;;;6.00;2.42;;;;;;;;;;5028240;28;20324;-73
2022/05/09 12:25:11;;;;;;;3.10;2.10;;;;;;;;;;5034209;28;20567;-71
2022/05/09 12:27:42;;;;;;;3.70;2.08;;;;;;;;;;5028444;28;20228;-72
2022/05/09 12:30:15;;;;;;;3.42;2.58;;;;;;;;;;5030043;28;20721;-73
2022/05/09 12:32:51;;;;;;;3.45;2.05;;;;;;;;;;5033138;28;20200;-71
2022/05/09 12:35:21;;;;;;;4.65;2.08;;;;;;;;;;5033745;28;20204;-72
2022/05/09 12:37:55;;;;;;;5.90;2.38;;;;;;;;;;5022584;28;20224;-71
2022/05/09 12:40:24;;;;;;;2.88;2.42;;;;;;;;;;5026825;28;20204;-72
2022/05/09 12:42:55;;;;;;;4.28;2.38;;;;;;;;;;5027460;28;20228;-71
2022/05/09 12:45:24;;;;;;;4.38;2.17;;;;;;;;;;5032609;28;20208;-72
2022/05/09 12:47:53;;;;;;;3.90;2.22;;;;;;;;;;5031267;28;20231;-72
2022/05/09 12:50:27;;;;;;;5.40;2.42;;;;;;;;;;5031952;28;20619;-73
2022/05/09 12:52:57;;;;;;;4.22;2.25;;;;;;;;;;5029447;28;20226;-72
2022/05/09 12:58:21;;;;;;;3.78;2.30;;;;;;;;;;5031597;28;20223;-71
2022/05/09 13:00:50;;;;;;;3.45;2.53;;;;;;;;;;5033487;28;20233;-73
2022/05/09 13:03:48;;;;;;;4.25;2.35;;;;;;;;;;5028358;28;20225;-71
2022/05/09 13:06:20;;;;;;;4.40;2.10;;;;;;;;;;5031181;28;20298;-71
2022/05/09 13:08:49;;;;;;;3.97;2.42;;;;;;;;;;5029430;28;20250;-72
2022/05/09 13:11:19;;;;;;;6.05;2.30;;;;;;;;;;5031244;28;20250;-73
2022/05/09 13:14:00;;;;;;;2.25;1.88;;;;;;;;;;5042770;28;20199;-71
2022/05/09 13:16:32;;;;;;;3.58;2.22;;;;;;;;;;5026239;28;20659;-72
2022/05/09 13:19:01;;;;;;;4.10;2.22;;;;;;;;;;5024207;28;20223;-71
2022/05/09 13:21:34;;;;;;;4.43;2.03;;;;;;;;;;5033048;28;20570;-72
2022/05/09 13:24:03;;;;;;;2.65;2.05;;;;;;;;;;5031480;28;20219;-71
2022/05/09 13:26:32;;;;;;;4.43;2.30;;;;;;;;;;5032723;28;20612;-71
2022/05/09 13:29:09;;;;;;;3.97;2.30;;;;;;;;;;5032363;28;20216;-72
2022/05/09 13:31:41;;;;;;;4.13;2.40;;;;;;;;;;5032271;28;20212;-72
2022/05/09 13:34:18;;;;;;;4.70;2.20;;;;;;;;;;5033148;28;20191;-72
2022/05/09 13:36:49;;;;;;;4.32;2.28;;;;;;;;;;5031304;28;20206;-72
2022/05/09 13:39:26;;;;;;;5.22;2.35;;;;;;;;;;5031183;28;20604;-72
2022/05/09 13:41:55;;;;;;;4.30;2.33;;;;;;;;;;5026528;28;20199;-72
2022/05/09 13:44:25;;;;;;;3.22;2.28;;;;;;;;;;5027623;28;20207;-71
2022/05/09 13:46:56;;;;;;;4.22;2.20;;;;;;;;;;5029719;28;20242;-71
2022/05/09 13:49:24;;;;;;;5.57;2.55;;;;;;;;;;5032235;28;20609;-71
2022/05/09 13:51:55;;;;;;;3.33;1.95;;;;;;;;;;5031098;28;20724;-72
2022/05/09 13:54:27;;;;;;;5.45;2.60;;;;;;;;;;5030671;28;20542;-73
2022/05/09 13:57:09;;;;;;;3.55;2.20;;;;;;;;;;5033126;28;20204;-72
2022/05/09 13:59:45;;;;;;;5.05;2.20;;;;;;;;;;5031013;28;20192;-73
2022/05/09 14:02:15;;;;;;;3.88;2.28;;;;;;;;;;5031209;28;20204;-72
2022/05/09 14:04:44;;;;;;;4.50;2.30;;;;;;;;;;5031049;28;20608;-73
2022/05/09 14:10:21;;;;;;;3.38;2.20;;;;;;;;;;4966144;28;20232;-72
2022/05/09 14:12:52;;;;;;;5.90;2.17;;;;;;;;;;4970288;28;20212;-74
2022/05/09 14:15:23;;;;;;;4.00;2.03;;;;;;;;;;5000658;28;20208;-73
2022/05/09 14:17:54;;;;;;;6.18;2.20;;;;;;;;;;5030799;28;20234;-74
2022/05/09 14:20:26;;;;;;;3.92;2.15;;;;;;;;;;5031425;28;20199;-72
2022/05/09 14:22:57;;;;;;;5.82;2.50;;;;;;;;;;5032362;28;20281;-72
2022/05/09 14:31:21;;;;;;;2.10;1.90;;;;;;;;;;5033605;28;20218;-74
2022/05/09 14:33:50;;;;;;;6.45;2.05;;;;;;;;;;5035769;28;20561;-73
2022/05/09 14:36:29;;;;;;;3.47;1.90;;;;;;;;;;5034894;28;20211;-74
2022/05/09 14:39:24;;;;;;;3.90;2.10;;;;;;;;;;5029759;28;20263;-73
2022/05/09 14:42:04;;;;;;;4.72;2.22;;;;;;;;;;5029684;28;20211;-72
2022/05/09 14:44:33;;;;;;;5.60;2.50;;;;;;;;;;5023295;28;20228;-73
2022/05/09 14:47:04;;;;;;;2.58;1.88;;;;;;;;;;5033530;28;20227;-72
2022/05/09 14:49:54;;;;;;;2.85;2.10;;;;;;;;;;5027304;28;20293;-72
2022/05/09 14:52:30;;;;;;;2.92;1.90;;;;;;;;;;5034900;28;20203;-73
2022/05/09 14:57:50;;;;;;;4.18;1.80;;;;;;;;;;5031941;28;20227;-72
2022/05/09 15:00:20;;;;;;;3.70;1.90;;;;;;;;;;5035020;28;20242;-72
2022/05/09 15:02:56;;;;;;;2.80;2.05;;;;;;;;;;5035160;28;20663;-72
2022/05/09 15:05:24;;;;;;;4.28;2.22;;;;;;;;;;5031822;28;20200;-73
2022/05/09 15:07:54;;;;;;;3.40;2.28;;;;;;;;;;5031515;28;20231;-72
2022/05/09 15:10:24;;;;;;;3.08;1.90;;;;;;;;;;5027366;28;20247;-73
2022/05/09 15:12:53;;;;;;;2.83;2.20;;;;;;;;;;5029440;28;20208;-73
2022/05/09 15:15:21;;;;;;;3.17;2.10;;;;;;;;;;5034213;28;20214;-72
2022/05/09 15:17:50;;;;;;;4.28;2.05;;;;;;;;;;5035510;28;20219;-71
2022/05/09 15:20:18;;;;;;;3.45;2.13;;;;;;;;;;5032316;28;20218;-72
2022/05/09 15:22:48;;;;;;;3.85;2.08;;;;;;;;;;5031757;28;20200;-72
2022/05/09 15:25:17;;;;;;;2.90;2.08;;;;;;;;;;5029505;28;20609;-72
2022/05/09 15:27:47;;;;;;;2.92;2.00;;;;;;;;;;5030181;28;20219;-72
2022/05/09 15:30:15;;;;;;;4.15;2.40;;;;;;;;;;5028154;28;20269;-72
2022/05/09 15:32:44;;;;;;;2.95;2.10;;;;;;;;;;4682649;28;10000243;-73
2022/05/09 15:35:12;;;;;;;4.22;2.20;;;;;;;;;;5029853;28;20204;-72